Time;durP1;ratioP1;P1;durP2;ratioP2;P2;SDS_P1;SDS_P2;PMS_P1;PMS_P2;Temp;Humidity;BMP_temperature;BMP_pressure;BME280_temperature;BME280_humidity;BME280_pressure;Samples;Min_cycle;Max_cycle;Signal;HPM_P1;HPM_P2
2022/07/28 00:00:08;;;;;;;12.00;7.90;;;;;;;18.60;92.35;92477.41;5036781;28;20071;-74
2022/07/28 00:02:33;;;;;;;16.42;8.40;;;;;;;18.56;92.54;92473.91;5036436;28;20060;-74
2022/07/28 00:04:59;;;;;;;12.75;8.80;;;;;;;18.55;92.95;92473.09;5054477;28;20479;-76
2022/07/28 00:07:25;;;;;;;13.93;8.80;;;;;;;18.54;93.67;92484.06;5053972;28;20025;-74
2022/07/28 00:09:51;;;;;;;11.93;8.27;;;;;;;18.52;94.48;92487.03;5054469;28;20037;-74
2022/07/28 00:12:17;;;;;;;13.13;8.15;;;;;;;18.52;94.56;92484.38;5054382;28;20372;-74
2022/07/28 00:14:43;;;;;;;15.15;9.10;;;;;;;18.53;94.56;92475.34;5054288;28;20056;-74
2022/07/28 00:17:08;;;;;;;17.95;9.23;;;;;;;18.53;94.68;92485.94;5033899;28;20036;-73
2022/07/28 00:19:34;;;;;;;16.13;9.88;;;;;;;18.55;94.11;92480.28;5016553;28;20036;-74
2022/07/28 00:22:01;;;;;;;14.40;10.13;;;;;;;18.55;93.83;92483.69;5016601;28;20033;-74
2022/07/28 00:24:27;;;;;;;16.00;10.93;;;;;;;18.59;93.40;92483.81;5000526;28;20156;-74
2022/07/28 00:26:52;;;;;;;15.45;10.68;;;;;;;18.59;93.14;92483.81;5000047;28;20540;-73
2022/07/28 00:29:18;;;;;;;15.35;10.07;;;;;;;18.61;93.22;92481.59;5031101;28;20041;-74
2022/07/28 00:31:43;;;;;;;16.20;10.57;;;;;;;18.63;93.97;92484.69;5053942;28;20138;-74
2022/07/28 00:34:09;;;;;;;14.45;10.65;;;;;;;18.66;94.74;92478.72;5019462;28;20033;-73
2022/07/28 00:36:34;;;;;;;15.18;9.80;;;;;;;18.67;94.56;92482.91;5053745;28;20083;-74
2022/07/28 00:39:00;;;;;;;14.07;10.02;;;;;;;18.67;94.65;92490.88;5044337;28;20132;-73
2022/07/28 00:41:25;;;;;;;15.57;10.63;;;;;;;18.68;99.84;92490.50;5016180;28;20033;-74
2022/07/28 00:43:51;;;;;;;18.25;10.25;;;;;;;18.65;97.85;92487.78;5016216;28;20392;-74
2022/07/28 00:46:21;;;;;;;13.88;9.45;;;;;;;18.62;96.68;92494.53;4999841;28;20049;-74
2022/07/28 00:48:50;;;;;;;14.80;10.35;;;;;;;18.61;97.64;92492.97;5017337;28;20032;-74
2022/07/28 00:51:18;;;;;;;16.33;10.75;;;;;;;18.62;99.85;92491.09;5035812;28;20025;-74
2022/07/28 00:53:45;;;;;;;14.45;10.38;;;;;;;18.61;98.65;92481.59;5053331;28;20072;-74
2022/07/28 00:56:12;;;;;;;14.30;10.40;;;;;;;18.63;98.14;92485.47;5035643;28;20112;-73
2022/07/28 00:58:37;;;;;;;13.60;10.45;;;;;;;18.58;100.00;92493.66;5035457;28;20449;-74
2022/07/28 01:01:06;;;;;;;15.43;11.23;;;;;;;18.52;100.00;92500.28;5038371;28;20043;-73
2022/07/28 01:03:32;;;;;;;14.85;10.25;;;;;;;18.53;100.00;92501.84;5015395;28;20033;-74
2022/07/28 01:05:58;;;;;;;15.55;10.70;;;;;;;18.52;100.00;92498.41;4999344;28;20072;-74
2022/07/28 01:08:48;;;;;;;14.82;10.63;;;;;;;18.55;100.00;92498.84;5015940;28;20480;-74
2022/07/28 01:11:31;;;;;;;16.00;9.48;;;;;;;18.55;99.72;92494.31;5033389;28;20041;-73
2022/07/28 01:14:09;;;;;;;16.73;10.50;;;;;;;18.60;100.00;92502.03;5033288;28;20037;-73
2022/07/28 01:16:44;;;;;;;13.73;9.73;;;;;;;18.58;100.00;92503.50;5033231;28;20103;-74
2022/07/28 01:19:34;;;;;;;14.88;10.13;;;;;;;18.49;100.00;92507.03;5033159;28;20049;-74
2022/07/28 01:22:02;;;;;;;15.05;10.93;;;;;;;18.47;100.00;92501.28;5032288;28;20056;-73
2022/07/28 01:24:32;;;;;;;14.40;10.43;;;;;;;18.43;100.00;92500.41;5036915;28;20406;-73
2022/07/28 01:27:08;;;;;;;13.48;9.48;;;;;;;18.44;100.00;92494.00;5015939;28;20335;-73
2022/07/28 01:29:56;;;;;;;15.27;10.30;;;;;;;18.43;100.00;92495.09;5015240;28;20034;-73
2022/07/28 01:32:29;;;;;;;14.60;9.48;;;;;;;18.41;100.00;92489.38;5025753;28;20029;-73
2022/07/28 01:35:10;;;;;;;17.75;10.23;;;;;;;18.42;100.00;92490.94;5020431;28;20048;-74
2022/07/28 01:37:43;;;;;;;14.60;9.65;;;;;;;18.42;99.67;92490.94;5032770;28;20091;-74
2022/07/28 01:40:12;;;;;;;14.18;10.32;;;;;;;18.41;99.67;92499.97;5032793;28;20423;-74
2022/07/28 01:42:43;;;;;;;13.68;10.43;;;;;;;18.37;100.00;92493.78;5047312;28;20124;-73
2022/07/28 01:45:11;;;;;;;13.07;9.38;;;;;;;18.38;100.00;92492.69;5052504;28;20040;-74
2022/07/28 01:47:38;;;;;;;12.77;9.30;;;;;;;18.43;100.00;92483.75;5034552;28;20480;-74
2022/07/28 01:50:08;;;;;;;15.43;9.57;;;;;;;18.42;100.00;92492.81;5052459;28;20110;-74
2022/07/28 01:52:36;;;;;;;14.85;10.07;;;;;;;18.43;100.00;92497.75;5050399;28;20475;-73
2022/07/28 01:55:03;;;;;;;13.98;10.02;;;;;;;18.40;100.00;92495.78;5052741;28;20040;-73
2022/07/28 01:57:32;;;;;;;15.05;10.18;;;;;;;18.39;100.00;92488.94;5051950;28;20398;-73
2022/07/28 01:59:59;;;;;;;14.23;9.00;;;;;;;18.37;100.00;92483.19;5052185;28;20052;-74
2022/07/28 02:02:28;;;;;;;14.65;9.23;;;;;;;18.36;100.00;92486.97;5050603;28;20489;-74
2022/07/28 02:04:56;;;;;;;13.40;9.27;;;;;;;18.32;100.00;92483.44;5043343;28;20518;-74
2022/07/28 02:07:23;;;;;;;18.23;9.73;;;;;;;18.33;100.00;92489.50;5032333;28;20486;-74
2022/07/28 02:09:50;;;;;;;15.32;11.07;;;;;;;18.30;100.00;92482.97;5014444;28;20470;-74
2022/07/28 02:12:17;;;;;;;14.55;10.10;;;;;;;18.30;100.00;92483.75;5014790;28;20041;-74
2022/07/28 02:14:47;;;;;;;14.05;10.35;;;;;;;18.33;100.00;92481.53;5051941;28;20580;-73
2022/07/28 02:17:17;;;;;;;15.68;9.98;;;;;;;18.30;100.00;92480.34;5051347;28;20437;-73
2022/07/28 02:19:46;;;;;;;14.55;10.38;;;;;;;18.26;100.00;92482.09;5051886;28;20035;-74
2022/07/28 02:22:13;;;;;;;14.80;10.38;;;;;;;18.23;100.00;92482.78;5051780;28;20047;-74
2022/07/28 02:24:40;;;;;;;16.00;10.23;;;;;;;18.26;100.00;92484.75;5049307;28;20041;-73
2022/07/28 02:27:22;;;;;;;16.30;10.52;;;;;;;18.27;100.00;92488.97;5051710;28;20029;-74
2022/07/28 02:29:52;;;;;;;15.07;10.70;;;;;;;18.27;100.00;92481.00;5033759;28;20048;-74
2022/07/28 02:32:49;;;;;;;17.75;10.48;;;;;;;18.26;100.00;92492.69;5051779;28;20079;-73
2022/07/28 02:35:23;;;;;;;17.35;10.68;;;;;;;18.25;100.00;92485.88;5049643;28;20032;-73
2022/07/28 02:37:56;;;;;;;14.20;10.13;;;;;;;18.24;100.00;92482.44;5051604;28;20044;-74
2022/07/28 02:40:22;;;;;;;13.45;9.93;;;;;;;18.21;100.00;92480.44;5033569;28;20033;-74
2022/07/28 02:42:49;;;;;;;17.00;11.13;;;;;;;18.21;100.00;92479.69;5033560;28;20032;-74
2022/07/28 02:45:17;;;;;;;16.95;10.93;;;;;;;18.20;100.00;92475.50;5049357;28;20075;-74
2022/07/28 02:47:52;;;;;;;16.42;11.30;;;;;;;18.19;100.00;92477.34;5033391;28;20399;-74
2022/07/28 02:50:22;;;;;;;14.43;10.98;;;;;;;18.23;100.00;92474.81;5051610;28;20079;-73
2022/07/28 02:52:48;;;;;;;17.70;10.30;;;;;;;18.21;100.00;92469.09;5051101;28;20029;-73
2022/07/28 02:55:15;;;;;;;15.88;10.93;;;;;;;18.16;100.00;92472.75;5049659;28;20372;-74
2022/07/28 02:57:43;;;;;;;15.52;10.50;;;;;;;18.14;100.00;92479.47;5051491;28;20553;-74
2022/07/28 03:00:09;;;;;;;15.80;11.13;;;;;;;18.12;100.00;92481.69;5051027;28;20502;-74
2022/07/28 03:02:37;;;;;;;16.45;11.55;;;;;;;18.07;100.00;92485.34;5016711;28;20044;-73
2022/07/28 03:05:03;;;;;;;19.60;11.73;;;;;;;18.04;100.00;92492.06;5050476;28;20021;-74
2022/07/28 03:07:35;;;;;;;17.30;11.43;;;;;;;18.01;100.00;92486.66;5033193;28;20044;-74
2022/07/28 03:10:01;;;;;;;16.33;11.53;;;;;;;17.95;100.00;92488.75;5033172;28;20043;-74
2022/07/28 03:12:27;;;;;;;17.85;11.85;;;;;;;17.90;100.00;92489.00;5033390;28;20032;-74
2022/07/28 03:14:53;;;;;;;23.20;12.43;;;;;;;17.89;100.00;92490.84;5016482;28;20040;-74
2022/07/28 03:17:19;;;;;;;18.35;11.38;;;;;;;17.90;100.00;92486.34;5031134;28;20120;-74
2022/07/28 03:19:45;;;;;;;20.25;12.60;;;;;;;17.91;100.00;92492.41;5030920;28;20391;-74
2022/07/28 03:22:10;;;;;;;19.67;12.45;;;;;;;17.89;100.00;92492.72;5013204;28;20514;-74
2022/07/28 03:24:42;;;;;;;16.45;11.75;;;;;;;17.89;100.00;92495.38;5013165;28;20053;-74
2022/07/28 03:27:19;;;;;;;;;;;;;;;17.91;100.00;92495.81;5032175;28;20033;-73
2022/07/28 03:30:09;;;;;;;17.70;11.55;;;;;;;17.92;100.00;92501.88;5013156;28;19913;-73
2022/07/28 03:32:39;;;;;;;17.30;12.18;;;;;;;17.91;100.00;92506.41;5004982;28;20140;-74
2022/07/28 03:35:06;;;;;;;20.23;10.77;;;;;;;17.92;100.00;92507.19;5063175;28;20036;-74
2022/07/28 03:37:37;;;;;;;18.98;12.65;;;;;;;17.93;100.00;92501.56;5036802;28;20087;-74
2022/07/28 03:40:04;;;;;;;18.75;13.02;;;;;;;17.95;100.00;92504.66;5050678;28;20080;-74
2022/07/28 03:42:32;;;;;;;21.10;12.85;;;;;;;17.93;100.00;92503.44;5032760;28;20032;-74
2022/07/28 03:44:59;;;;;;;19.33;12.25;;;;;;;17.92;100.00;92504.53;5050457;28;20021;-73
2022/07/28 03:47:24;;;;;;;18.00;12.77;;;;;;;17.89;100.00;92504.09;5048931;28;20047;-74
2022/07/28 03:49:50;;;;;;;18.70;12.38;;;;;;;17.87;100.00;92502.88;5050278;28;20033;-74
2022/07/28 03:52:17;;;;;;;18.58;11.90;;;;;;;17.88;100.00;92509.72;5016133;28;20087;-74
2022/07/28 03:54:43;;;;;;;20.20;12.52;;;;;;;17.88;100.00;92505.19;5032243;28;20056;-74
2022/07/28 03:57:09;;;;;;;18.70;11.85;;;;;;;17.96;100.00;92519.44;5046415;28;20042;-75
2022/07/28 03:59:35;;;;;;;17.08;11.60;;;;;;;17.96;100.00;92508.84;5013141;28;20053;-74
2022/07/28 04:02:00;;;;;;;23.88;12.80;;;;;;;18.02;100.00;92512.81;5030331;28;20045;-73
2022/07/28 04:04:26;;;;;;;18.42;12.98;;;;;;;18.04;100.00;92515.91;5012644;28;20039;-73
2022/07/28 04:06:52;;;;;;;17.88;12.30;;;;;;;18.02;100.00;92515.47;5012920;28;20029;-73
2022/07/28 04:09:17;;;;;;;20.05;12.82;;;;;;;18.01;100.00;92508.63;5018598;28;20442;-72
2022/07/28 04:11:43;;;;;;;20.88;12.85;;;;;;;18.02;100.00;92514.69;5045298;28;20040;-73
2022/07/28 04:14:09;;;;;;;18.98;12.55;;;;;;;18.00;100.00;92512.38;5045915;28;20438;-72
2022/07/28 04:16:34;;;;;;;19.20;12.95;;;;;;;17.99;100.00;92515.34;5050419;28;20041;-73
2022/07/28 04:19:00;;;;;;;19.17;12.60;;;;;;;18.01;100.00;92521.88;5038145;28;20546;-73
2022/07/28 04:21:26;;;;;;;17.65;11.82;;;;;;;18.01;100.00;92519.22;5030976;28;20029;-73
2022/07/28 04:23:52;;;;;;;18.40;12.38;;;;;;;18.04;100.00;92509.84;5050530;28;20037;-73
2022/07/28 04:26:18;;;;;;;21.10;13.30;;;;;;;18.02;100.00;92515.47;5050912;28;20029;-73
2022/07/28 04:28:44;;;;;;;20.58;12.50;;;;;;;18.06;100.00;92513.69;5031027;28;20036;-72
2022/07/28 04:31:10;;;;;;;21.02;13.07;;;;;;;18.04;100.00;92528.38;5050882;28;20272;-73
2022/07/28 04:33:36;;;;;;;25.60;13.30;;;;;;;18.06;100.00;92526.94;5032261;28;20090;-73
2022/07/28 04:36:02;;;;;;;19.95;13.10;;;;;;;18.07;100.00;92525.81;5050147;28;20120;-73
2022/07/28 04:38:28;;;;;;;21.10;13.10;;;;;;;18.11;100.00;92531.25;5032758;28;20495;-76
2022/07/28 04:40:54;;;;;;;21.23;12.93;;;;;;;18.10;100.00;92534.97;5034951;28;20054;-74
2022/07/28 04:43:20;;;;;;;24.08;13.70;;;;;;;18.12;100.00;92535.44;5026255;28;20372;-74
2022/07/28 04:45:46;;;;;;;21.92;13.93;;;;;;;18.17;100.00;92540.53;5036320;28;20040;-74
2022/07/28 04:48:13;;;;;;;18.50;12.02;;;;;;;18.20;100.00;92539.09;5053174;28;20025;-74
2022/07/28 04:50:40;;;;;;;18.83;11.13;;;;;;;18.23;100.00;92535.75;5060598;28;20074;-74
2022/07/28 04:53:06;;;;;;;17.95;12.40;;;;;;;18.26;100.00;92535.09;5073444;28;20059;-74
2022/07/28 04:55:32;;;;;;;21.60;12.75;;;;;;;18.33;100.00;92537.19;5073882;28;20024;-74
2022/07/28 04:57:58;;;;;;;21.73;12.82;;;;;;;18.36;100.00;92539.19;5073848;28;20361;-74
2022/07/28 05:00:24;;;;;;;17.42;12.43;;;;;;;18.36;100.00;92537.31;5068020;28;20032;-74
2022/07/28 05:02:50;;;;;;;20.60;12.75;;;;;;;18.37;100.00;92543.38;5018667;28;20056;-74
2022/07/28 05:05:16;;;;;;;19.65;12.60;;;;;;;18.36;100.00;92542.59;5053465;28;20052;-74
2022/07/28 05:07:42;;;;;;;19.27;11.77;;;;;;;18.36;100.00;92545.25;5035801;28;20033;-74
2022/07/28 05:10:10;;;;;;;19.70;12.50;;;;;;;18.38;100.00;92543.03;5019092;28;20039;-75
2022/07/28 05:12:36;;;;;;;19.25;12.13;;;;;;;18.40;100.00;92545.38;5051529;28;20032;-74
2022/07/28 05:15:02;;;;;;;24.48;12.18;;;;;;;18.41;100.00;92545.03;5018836;28;20082;-74
2022/07/28 05:17:27;;;;;;;20.30;11.95;;;;;;;18.44;100.00;92544.38;5052528;28;20040;-74
2022/07/28 05:19:53;;;;;;;19.38;12.15;;;;;;;18.50;100.00;92540.38;5035533;28;20028;-75
2022/07/28 05:22:18;;;;;;;17.13;11.48;;;;;;;18.56;100.00;92542.81;5033800;28;20478;-74
2022/07/28 05:24:44;;;;;;;19.55;11.77;;;;;;;18.56;100.00;92542.81;4999188;28;20451;-74
2022/07/28 05:27:12;;;;;;;17.52;11.98;;;;;;;18.57;100.00;92533.75;5033024;28;20034;-74
2022/07/28 05:29:40;;;;;;;18.70;11.98;;;;;;;18.60;100.00;92544.47;5033144;28;20026;-74
2022/07/28 05:32:07;;;;;;;17.70;11.40;;;;;;;18.64;100.00;92542.69;5033356;28;20045;-74
2022/07/28 05:34:33;;;;;;;17.10;11.43;;;;;;;18.72;100.00;92546.31;5035172;28;20037;-74
2022/07/28 05:37:01;;;;;;;19.17;10.00;;;;;;;18.69;100.00;92542.44;5052728;28;20055;-74
2022/07/28 05:39:27;;;;;;;18.35;10.38;;;;;;;18.75;100.00;92544.88;5052781;28;20041;-74
2022/07/28 05:41:53;;;;;;;15.63;9.98;;;;;;;18.82;100.00;92547.75;5018373;28;20025;-74
2022/07/28 05:44:19;;;;;;;17.50;10.73;;;;;;;18.88;100.00;92547.19;5051327;28;20449;-74
2022/07/28 05:46:44;;;;;;;17.35;11.02;;;;;;;18.95;100.00;92548.50;5035101;28;20033;-74
2022/07/28 05:49:10;;;;;;;16.08;10.88;;;;;;;19.01;100.00;92549.81;5052566;28;20017;-74
2022/07/28 05:51:35;;;;;;;18.63;11.13;;;;;;;19.05;100.00;92550.66;5017288;28;20471;-74
2022/07/28 05:54:01;;;;;;;21.25;11.05;;;;;;;19.20;100.00;92557.91;5052275;28;20045;-74
2022/07/28 05:56:26;;;;;;;15.20;10.63;;;;;;;19.31;100.00;92556.31;5034673;28;20075;-75
2022/07/28 05:58:52;;;;;;;14.02;10.15;;;;;;;19.43;98.63;92560.81;5052319;28;20048;-75
2022/07/28 06:01:18;;;;;;;15.52;10.68;;;;;;;19.52;98.65;92556.13;5017900;28;20037;-74
2022/07/28 06:03:43;;;;;;;17.52;10.30;;;;;;;19.66;97.51;92561.03;5052427;28;20023;-74
2022/07/28 06:06:09;;;;;;;15.57;10.20;;;;;;;19.76;95.45;92560.53;5052220;28;20043;-74
2022/07/28 06:08:35;;;;;;;17.05;10.02;;;;;;;19.83;92.86;92561.84;5052554;28;20089;-74
2022/07/28 06:11:07;;;;;;;18.48;10.32;;;;;;;19.85;93.28;92559.63;5034312;28;20445;-73
2022/07/28 06:13:35;;;;;;;16.63;10.32;;;;;;;19.92;92.51;92573.06;5035227;28;20037;-75
2022/07/28 06:16:01;;;;;;;14.25;9.85;;;;;;;20.03;93.25;92568.78;5051223;28;20509;-74
2022/07/28 06:18:27;;;;;;;17.38;10.32;;;;;;;20.08;95.63;92568.53;5034663;28;20241;-74
2022/07/28 06:20:52;;;;;;;13.88;9.85;;;;;;;20.16;96.17;92566.84;5052268;28;20033;-75
2022/07/28 06:23:20;;;;;;;13.88;9.40;;;;;;;20.33;94.57;92561.16;5017789;28;20032;-74
2022/07/28 06:25:46;;;;;;;14.93;9.68;;;;;;;20.58;93.78;92561.75;5024460;28;20041;-74
2022/07/28 06:28:12;;;;;;;12.80;8.95;;;;;;;20.85;92.18;92563.81;5014227;28;20040;-74
2022/07/28 06:30:37;;;;;;;15.18;8.75;;;;;;;21.07;89.41;92567.72;5014235;28;20479;-74
2022/07/28 06:33:04;;;;;;;13.60;9.73;;;;;;;21.47;86.99;92567.38;5031849;28;20045;-74
2022/07/28 06:35:31;;;;;;;15.35;9.73;;;;;;;21.94;85.69;92565.56;5034135;28;20171;-75
2022/07/28 06:37:57;;;;;;;19.42;10.13;;;;;;;22.00;83.62;92566.81;5051659;28;20036;-75
2022/07/28 06:40:22;;;;;;;14.90;9.23;;;;;;;22.24;81.65;92566.47;5033880;28;20063;-75
2022/07/28 06:42:49;;;;;;;13.23;8.93;;;;;;;22.15;81.53;92573.91;5017234;28;20082;-75
2022/07/28 06:45:15;;;;;;;12.32;7.68;;;;;;;22.12;83.13;92579.97;5051461;28;20115;-74
2022/07/28 06:47:41;;;;;;;14.18;7.78;;;;;;;22.12;82.51;92579.97;4999865;28;20088;-75
2022/07/28 06:50:08;;;;;;;14.00;7.90;;;;;;;21.99;85.80;92578.59;4998256;28;20037;-74
2022/07/28 06:52:34;;;;;;;17.10;8.63;;;;;;;21.76;89.87;92574.00;5051175;28;20029;-75
2022/07/28 06:54:59;;;;;;;17.48;9.20;;;;;;;21.67;90.68;92580.69;5033467;28;20049;-74
2022/07/28 06:57:26;;;;;;;12.38;8.57;;;;;;;21.74;91.19;92578.16;5041070;28;20091;-74
2022/07/28 06:59:53;;;;;;;18.42;8.75;;;;;;;21.68;90.11;92585.66;5013754;28;20392;-74
2022/07/28 07:02:18;;;;;;;14.23;9.05;;;;;;;21.70;87.14;92583.41;5031076;28;20034;-74
2022/07/28 07:04:44;;;;;;;12.13;8.57;;;;;;;21.75;85.80;92580.47;4997378;28;20396;-75
2022/07/28 07:07:10;;;;;;;11.82;8.23;;;;;;;21.86;82.25;92590.53;4997479;28;20040;-75
2022/07/28 07:09:36;;;;;;;15.10;7.88;;;;;;;21.68;85.06;92585.66;4997165;28;20495;-74
2022/07/28 07:12:02;;;;;;;17.73;9.55;;;;;;;21.44;90.82;92588.63;5031019;28;20045;-74
2022/07/28 07:14:27;;;;;;;13.52;8.82;;;;;;;21.14;92.40;92586.47;5031115;28;20517;-74
2022/07/28 07:16:53;;;;;;;18.33;9.30;;;;;;;21.12;93.95;92588.72;5013295;28;20021;-74
2022/07/28 07:19:19;;;;;;;18.58;9.32;;;;;;;21.07;92.61;92587.09;5048167;28;20375;-74
2022/07/28 07:21:48;;;;;;;13.00;8.80;;;;;;;21.04;93.36;92593.13;5050950;28;20509;-74
2022/07/28 07:24:14;;;;;;;15.45;9.40;;;;;;;20.94;94.89;92583.81;5032870;28;20032;-74
2022/07/28 07:26:40;;;;;;;13.43;8.75;;;;;;;21.34;89.24;92590.69;5032988;28;20064;-74
2022/07/28 07:29:06;;;;;;;14.88;8.48;;;;;;;21.27;90.01;92584.47;5032837;28;20033;-74
2022/07/28 07:31:33;;;;;;;11.60;8.48;;;;;;;21.39;90.59;92578.97;5050652;28;20036;-74
2022/07/28 07:33:59;;;;;;;14.57;9.27;;;;;;;21.65;86.87;92570.38;5050610;28;20148;-74
2022/07/28 07:36:24;;;;;;;18.65;8.40;;;;;;;21.71;86.94;92576.97;5032797;28;20048;-74
2022/07/28 07:38:50;;;;;;;12.02;8.82;;;;;;;21.76;86.34;92582.00;5029485;28;20018;-74
2022/07/28 07:41:16;;;;;;;12.68;8.38;;;;;;;21.82;77.64;92577.16;5030789;28;20071;-74
2022/07/28 07:43:42;;;;;;;19.77;8.50;;;;;;;21.86;79.82;92583.31;5013046;28;20037;-74
2022/07/28 07:46:07;;;;;;;14.40;8.50;;;;;;;22.02;77.52;92585.88;5013027;28;20385;-74
2022/07/28 07:48:33;;;;;;;12.38;8.00;;;;;;;21.92;81.23;92589.13;5013190;28;20058;-74
2022/07/28 07:50:59;;;;;;;11.38;7.88;;;;;;;22.12;84.46;92589.84;5032639;28;20410;-74
2022/07/28 07:53:24;;;;;;;11.73;8.10;;;;;;;22.19;84.13;92590.72;5030652;28;20053;-74
2022/07/28 07:55:50;;;;;;;10.38;7.80;;;;;;;22.02;85.91;92586.66;4980409;28;20095;-74
2022/07/28 07:58:16;;;;;;;10.98;8.05;;;;;;;22.02;84.72;92592.00;5013043;28;20115;-74
2022/07/28 08:00:42;;;;;;;15.18;8.27;;;;;;;22.49;84.35;92589.31;5032171;28;20467;-74
2022/07/28 08:03:07;;;;;;;11.88;7.90;;;;;;;23.00;77.85;92597.72;5030502;28;20033;-75
2022/07/28 08:05:33;;;;;;;11.45;7.80;;;;;;;23.52;74.01;92597.22;5012958;28;20506;-74
2022/07/28 08:07:58;;;;;;;10.65;7.00;;;;;;;23.74;67.74;92599.00;5012984;28;20166;-74
2022/07/28 08:10:24;;;;;;;13.93;7.30;;;;;;;23.93;73.20;92594.63;5016527;28;20036;-74
2022/07/28 08:12:50;;;;;;;13.40;6.88;;;;;;;23.91;74.38;92589.66;5032694;28;20451;-74
2022/07/28 08:15:15;;;;;;;13.07;6.82;;;;;;;23.72;75.62;92598.59;5053559;28;20413;-74
2022/07/28 08:17:41;;;;;;;12.13;7.25;;;;;;;23.50;77.66;92594.91;5036403;28;20037;-74
2022/07/28 08:20:07;;;;;;;10.05;6.55;;;;;;;23.43;75.48;92600.94;5054280;28;20410;-74
2022/07/28 08:22:32;;;;;;;12.32;7.45;;;;;;;23.16;78.40;92596.78;5053853;28;20044;-74
2022/07/28 08:24:59;;;;;;;9.80;7.47;;;;;;;23.10;74.82;92603.56;5036098;28;20414;-74
2022/07/28 08:27:25;;;;;;;12.82;7.43;;;;;;;22.85;78.13;92610.09;5054054;28;20063;-74
2022/07/28 08:29:51;;;;;;;12.30;7.63;;;;;;;22.72;80.02;92605.28;5053959;28;20048;-74
2022/07/28 08:32:17;;;;;;;10.52;7.30;;;;;;;22.68;80.42;92601.81;5039236;28;20045;-74
2022/07/28 08:34:42;;;;;;;15.50;6.95;;;;;;;22.69;80.01;92600.69;5034146;28;20052;-74
2022/07/28 08:37:08;;;;;;;20.77;8.00;;;;;;;22.75;79.31;92610.69;4999789;28;20081;-74
2022/07/28 08:39:34;;;;;;;11.00;7.78;;;;;;;22.97;79.45;92611.78;5016384;28;20088;-73
2022/07/28 08:42:06;;;;;;;10.88;7.55;;;;;;;23.11;73.86;92610.44;5000234;28;20049;-74
2022/07/28 08:44:57;;;;;;;11.95;7.25;;;;;;;22.89;69.90;92604.78;5016163;28;20123;-74
2022/07/28 08:47:25;;;;;;;11.40;6.45;;;;;;;23.01;73.07;92609.94;4999841;28;20032;-74
2022/07/28 08:49:53;;;;;;;11.18;7.30;;;;;;;22.97;71.05;92617.09;5033797;28;20513;-74
2022/07/28 08:52:20;;;;;;;10.25;7.40;;;;;;;23.11;71.59;92618.47;5042847;28;20068;-74
2022/07/28 08:54:48;;;;;;;13.70;6.80;;;;;;;23.29;70.25;92614.13;5053372;28;20045;-74
2022/07/28 08:57:25;;;;;;;9.98;6.53;;;;;;;23.60;68.16;92609.53;5035800;28;20099;-74
2022/07/28 08:59:51;;;;;;;10.82;7.30;;;;;;;23.67;68.16;92621.06;5053600;28;20060;-74
2022/07/28 09:02:17;;;;;;;9.63;6.22;;;;;;;23.66;69.38;92618.75;5035645;28;20509;-74
2022/07/28 09:04:45;;;;;;;10.77;7.07;;;;;;;23.68;68.96;92621.84;5019195;28;20529;-74
2022/07/28 09:07:11;;;;;;;11.48;7.10;;;;;;;23.70;66.87;92620.31;5053461;28;20494;-74
2022/07/28 09:09:38;;;;;;;10.30;7.80;;;;;;;24.19;64.10;92621.25;5053402;28;20059;-74
2022/07/28 09:12:04;;;;;;;7.95;6.10;;;;;;;24.52;64.85;92614.31;5019251;28;20714;-75
2022/07/28 09:14:31;;;;;;;11.88;6.53;;;;;;;24.79;65.44;92616.78;5020326;28;20064;-75
2022/07/28 09:16:59;;;;;;;11.02;6.40;;;;;;;24.83;63.07;92620.25;5015618;28;20042;-74
2022/07/28 09:19:25;;;;;;;8.60;6.05;;;;;;;24.99;60.53;92625.34;5015646;28;20036;-74
2022/07/28 09:21:51;;;;;;;8.35;6.50;;;;;;;25.30;60.33;92624.03;5033385;28;20042;-75
2022/07/28 09:24:35;;;;;;;9.70;6.20;;;;;;;25.55;61.04;92622.22;5041529;28;20040;-75
2022/07/28 09:27:05;;;;;;;14.80;5.70;;;;;;;25.81;61.76;92620.41;5053064;28;20079;-75
2022/07/28 09:29:31;;;;;;;12.30;5.85;;;;;;;25.79;60.23;92617.34;5053005;28;20558;-75
2022/07/28 09:31:57;;;;;;;9.32;6.00;;;;;;;25.58;57.38;92619.94;5035245;28;20052;-75
2022/07/28 09:34:23;;;;;;;10.63;6.00;;;;;;;25.28;55.77;92613.66;5051089;28;20042;-75
2022/07/28 09:36:49;;;;;;;9.48;5.70;;;;;;;25.50;57.60;92611.88;5035199;28;20083;-74
2022/07/28 09:39:35;;;;;;;9.73;5.97;;;;;;;25.99;57.09;92614.38;5034898;28;20033;-75
2022/07/28 09:42:01;;;;;;;10.52;5.72;;;;;;;26.28;54.59;92610.59;5053134;28;20037;-75
2022/07/28 09:44:28;;;;;;;8.30;5.70;;;;;;;26.28;54.92;92609.81;5035364;28;20033;-75
2022/07/28 09:46:55;;;;;;;8.40;5.60;;;;;;;25.94;53.40;92604.78;5015963;28;20487;-75
2022/07/28 09:49:21;;;;;;;9.48;6.10;;;;;;;25.37;55.00;92610.66;5032826;28;20034;-74
2022/07/28 09:52:02;;;;;;;7.70;5.70;;;;;;;25.10;58.40;92608.19;5032772;28;20033;-75
2022/07/28 09:54:27;;;;;;;7.38;5.55;;;;;;;25.22;58.48;92606.38;5032528;28;20458;-74
2022/07/28 09:56:53;;;;;;;8.30;5.93;;;;;;;24.82;57.61;92606.13;5040817;28;20033;-75
2022/07/28 09:59:20;;;;;;;9.05;6.10;;;;;;;24.57;59.87;92605.94;5032457;28;20034;-74
2022/07/28 10:01:51;;;;;;;12.95;6.43;;;;;;;24.35;61.44;92601.53;5015207;28;20499;-75
2022/07/28 10:04:56;;;;;;;7.85;6.30;;;;;;;24.37;63.20;92602.69;5032865;28;20064;-75
2022/07/28 10:07:21;;;;;;;9.95;6.78;;;;;;;24.24;63.41;92609.44;5032666;28;20102;-74
2022/07/28 10:10:07;;;;;;;10.82;7.10;;;;;;;24.17;63.27;92612.81;5034441;28;20032;-75
2022/07/28 10:12:37;;;;;;;9.43;5.95;;;;;;;24.05;64.73;92608.50;5034521;28;20041;-74
2022/07/28 10:18:03;;;;;;;8.85;6.40;;;;;;;24.15;61.34;92603.63;5050681;28;20380;-74
2022/07/28 10:20:31;;;;;;;9.75;6.47;;;;;;;24.54;61.89;92608.56;5052182;28;20043;-74
2022/07/28 10:23:16;;;;;;;9.52;5.63;;;;;;;24.66;60.46;92601.03;5052103;28;20398;-74
2022/07/28 10:25:43;;;;;;;8.13;5.38;;;;;;;24.70;57.12;92604.50;5051901;28;20495;-75
2022/07/28 10:28:10;;;;;;;8.85;5.75;;;;;;;24.85;57.64;92593.88;5029538;28;20102;-74
2022/07/28 10:30:39;;;;;;;7.93;5.55;;;;;;;24.82;58.87;92584.69;5051912;28;20063;-75
2022/07/28 10:33:13;;;;;;;8.20;5.28;;;;;;;24.71;56.93;92600.69;5051968;28;20060;-75
2022/07/28 10:35:39;;;;;;;10.00;5.50;;;;;;;24.60;58.48;92597.16;5033993;28;20044;-75
2022/07/28 10:38:11;;;;;;;7.72;5.88;;;;;;;24.53;59.86;92589.09;5016975;28;20372;-74
2022/07/28 10:40:41;;;;;;;8.30;5.65;;;;;;;24.47;60.32;92591.31;5051796;28;20116;-74
2022/07/28 10:43:07;;;;;;;9.40;5.88;;;;;;;24.55;60.87;92594.84;5052232;28;20052;-74
2022/07/28 10:45:34;;;;;;;9.63;5.80;;;;;;;24.46;58.61;92591.69;5051504;28;20033;-75
2022/07/28 10:48:01;;;;;;;7.80;5.78;;;;;;;24.48;59.83;92592.88;5050235;28;20114;-75
2022/07/28 10:50:27;;;;;;;10.05;5.78;;;;;;;24.42;59.11;92599.66;5034196;28;20063;-75
2022/07/28 10:52:53;;;;;;;12.25;6.22;;;;;;;24.39;58.25;92594.31;5033726;28;20048;-74
2022/07/28 10:55:28;;;;;;;11.20;5.80;;;;;;;24.70;58.57;92599.16;5051717;28;20418;-75
2022/07/28 10:58:12;;;;;;;9.18;5.60;;;;;;;25.09;57.51;92593.28;5051333;28;20087;-75
2022/07/28 11:00:49;;;;;;;11.73;6.05;;;;;;;25.05;54.65;92595.16;4997318;28;20045;-74
2022/07/28 11:03:35;;;;;;;8.48;5.47;;;;;;;25.40;55.75;92585.81;5013886;28;20048;-75
2022/07/28 11:06:24;;;;;;;11.00;6.10;;;;;;;25.46;54.96;92588.88;5031232;28;20526;-75
2022/07/28 11:08:53;;;;;;;9.00;5.25;;;;;;;25.68;56.32;92590.50;5013660;28;20034;-75
2022/07/28 11:11:44;;;;;;;9.48;5.53;;;;;;;25.77;53.71;92582.09;5033732;28;20049;-75
2022/07/28 11:14:26;;;;;;;7.90;5.47;;;;;;;25.40;55.39;92588.50;5051226;28;20037;-75
2022/07/28 11:17:04;;;;;;;9.52;5.72;;;;;;;25.28;56.11;92588.81;5051064;28;20047;-74
2022/07/28 11:19:52;;;;;;;9.80;4.93;;;;;;;25.03;57.08;92586.72;5051160;28;20281;-75
2022/07/28 11:22:17;;;;;;;8.75;5.85;;;;;;;24.91;56.85;92592.41;5051012;28;20097;-75
2022/07/28 11:25:10;;;;;;;9.32;5.85;;;;;;;24.88;57.50;92582.44;5051168;28;20115;-75
2022/07/28 11:27:39;;;;;;;9.75;5.80;;;;;;;24.68;57.91;92589.97;5030501;28;20075;-75